Accueil
METAR-TAF:

METAR-TAF

Aéroports :

Lyon, France

Aéroport de Lyon-Bron

latitude: 45-43N, longitude: 004-57E, altitude: 200 m

Observation

Le bulletin a été fait il y a 23 minutes, à 03:00 UTC
Vent 4 kt de est, variant entre est/nord-est et sud-est
Température 14°C
Humidité 77%
Pression 1013 hPa
Visibilité 10 km ou plus
pas de nuages en-dessous de 1500 mètres et pas de cumulonimbus.

METAR: LFLY 190300Z AUTO 10004KT 070V130 CAVOK 14/10 Q1013 NOSIG

Heure: 05:23 (03:23 UTC)

Prévision

Le bulletin a été fait il y a 4 heures et 23 minutes, à 23:00 UTC
Prévision valable du 19 à 00 UTC au 19 à 24 UTC
Vent 7 kt de sud
Visibilité 10 km ou plus
pas de nuages en-dessous de 1500 mètres et pas de cumulonimbus.
Probabilité 40% :
Temporairement
du 19 à 11 UTC au 19 à 17 UTC
Vent 17 kt de sud

TAF: LFLY 182300Z 1900/1924 17007KT CAVOK PROB40 TEMPO 1911/1917 18017KT

Observations et prévisions météorologiques de plus de 4000 aéroports (messages METAR et TAF).

Les stations disponibles sont représentées par des disques jaunes et rouges sur la carte.

Passer la souris dessus pour voir le nom de la station.

Cliquer dessus pour voir les observations et prévisions météorologiques.

Pour changer de carte: cliquez sur les boutons verts avec une croix noire pour zoomer, sur le bouton vert avec un tiret pour effectuer un zoom arrière, ou sur les flèches vertes pour les cartes adjacentes.


METAR-TAF: